Time;durP1;ratioP1;P1;durP2;ratioP2;P2;SDS_P1;SDS_P2;PMS_P1;PMS_P2;Temp;Humidity;BMP_temperature;BMP_pressure;BME280_temperature;BME280_humidity;BME280_pressure;Samples;Min_cycle;Max_cycle;Signal;HPM_P1;HPM_P2
2022/03/29 00:03:26;;;;;;;14.50;8.40;;;22.20;51.20;;;;;;215319;1296;25176;-46
2022/03/29 00:08:30;;;;;;;14.10;8.40;;;22.10;51.40;;;;;;215891;1294;22651;-53
2022/03/29 00:13:34;;;;;;;13.60;8.20;;;22.10;51.40;;;;;;216002;1294;24243;-46
2022/03/29 00:18:37;;;;;;;14.40;8.20;;;22.10;51.40;;;;;;216091;1293;25435;-47
2022/03/29 00:23:41;;;;;;;13.90;7.90;;;22.00;51.70;;;;;;216101;1294;27467;-45
2022/03/29 00:28:44;;;;;;;10.20;7.00;;;22.00;51.50;;;;;;215803;1293;22686;-49
2022/03/29 00:33:49;;;;;;;11.20;7.40;;;22.00;51.10;;;;;;216053;1293;25377;-46
2022/03/29 00:38:54;;;;;;;14.60;7.80;;;22.10;51.20;;;;;;216069;1294;25442;-49
2022/03/29 00:43:58;;;;;;;12.50;7.70;;;22.10;51.00;;;;;;216172;1296;25347;-50
2022/03/29 00:49:02;;;;;;;13.60;8.30;;;22.00;51.10;;;;;;215562;1296;22605;-48
2022/03/29 00:54:11;;;;;;;12.00;7.40;;;22.00;51.00;;;;;;215951;1293;25283;-46
2022/03/29 00:59:25;;;;;;;12.10;7.90;;;22.00;50.90;;;;;;215481;1296;25297;-46
2022/03/29 01:04:30;;;;;;;11.70;7.60;;;22.00;51.00;;;;;;216155;1294;26631;-47
2022/03/29 01:09:34;;;;;;;11.80;8.00;;;21.90;51.30;;;;;;215927;1293;22583;-45
2022/03/29 01:14:40;;;;;;;10.80;7.40;;;21.90;50.90;;;;;;215200;1294;25296;-48
2022/03/29 01:19:43;;;;;;;12.60;7.40;;;21.90;50.90;;;;;;215736;1293;22601;-46
2022/03/29 01:24:48;;;;;;;10.80;7.20;;;21.80;50.80;;;;;;215359;1293;25292;-51
2022/03/29 01:29:59;;;;;;;10.00;6.60;;;21.80;50.50;;;;;;215432;1293;26538;-51
2022/03/29 01:35:03;;;;;;;12.30;6.70;;;21.90;50.60;;;;;;215474;1294;24502;-47
2022/03/29 01:40:12;;;;;;;11.50;7.00;;;21.90;50.20;;;;;;216009;1293;24408;-48
2022/03/29 01:45:17;;;;;;;9.60;7.00;;;21.90;50.40;;;;;;215999;1293;24456;-47
2022/03/29 01:50:25;;;;;;;11.20;6.90;;;21.80;50.70;;;;;;216113;1294;23956;-47
2022/03/29 01:55:29;;;;;;;9.90;6.70;;;21.80;51.00;;;;;;216199;1294;23969;-48
2022/03/29 02:00:34;;;;;;;11.40;7.10;;;21.80;50.90;;;;;;216277;1294;22557;-51
2022/03/29 02:05:38;;;;;;;9.90;6.60;;;21.80;50.60;;;;;;216238;1296;24337;-46
2022/03/29 02:10:42;;;;;;;11.50;7.20;;;21.80;50.50;;;;;;216254;1294;25378;-45
2022/03/29 02:15:46;;;;;;;11.10;6.50;;;21.80;50.70;;;;;;215919;1294;24361;-46
2022/03/29 02:20:50;;;;;;;11.00;6.70;;;21.70;50.40;;;;;;215769;1298;22595;-51
2022/03/29 02:25:54;;;;;;;8.30;6.40;;;21.70;50.10;;;;;;215731;1296;25317;-47
2022/03/29 02:30:57;;;;;;;11.40;7.00;;;21.70;50.00;;;;;;215843;1297;23224;-53
2022/03/29 02:36:01;;;;;;;9.70;6.30;;;21.70;49.90;;;;;;215507;1296;22713;-47
2022/03/29 02:41:04;;;;;;;11.30;6.90;;;21.70;50.00;;;;;;215754;1298;24365;-47
2022/03/29 02:46:08;;;;;;;8.30;5.70;;;21.70;50.70;;;;;;215606;1298;22700;-48
2022/03/29 02:51:11;;;;;;;8.70;6.10;;;21.70;50.40;;;;;;215353;1296;22605;-49
2022/03/29 02:56:15;;;;;;;8.30;5.50;;;21.70;50.50;;;;;;215756;1296;22564;-51
2022/03/29 03:01:19;;;;;;;8.90;5.90;;;21.60;50.20;;;;;;215615;1296;22682;-49
2022/03/29 03:06:24;;;;;;;9.40;6.50;;;21.60;50.60;;;;;;215785;1297;23973;-45
2022/03/29 03:11:28;;;;;;;8.60;5.70;;;21.60;50.70;;;;;;215791;1294;22592;-46
2022/03/29 03:16:31;;;;;;;7.30;5.50;;;21.60;50.30;;;;;;215933;1293;25365;-53
2022/03/29 03:21:53;;;;;;;10.40;5.80;;;21.60;50.50;;;;;;215941;1293;22695;-48
2022/03/29 03:26:57;;;;;;;10.80;6.10;;;21.60;49.90;;;;;;216105;1293;22777;-47
2022/03/29 03:32:01;;;;;;;10.10;6.20;;;21.60;49.80;;;;;;215785;1293;22579;-53
2022/03/29 03:37:06;;;;;;;8.40;5.50;;;21.60;49.80;;;;;;216221;1294;22556;-46
2022/03/29 03:42:10;;;;;;;9.40;5.70;;;21.60;49.80;;;;;;216163;1294;22586;-46
2022/03/29 03:47:13;;;;;;;9.10;6.10;;;21.60;50.30;;;;;;215930;1293;22586;-47
2022/03/29 03:52:17;;;;;;;8.90;5.80;;;21.60;50.30;;;;;;215381;1296;25923;-46
2022/03/29 03:57:21;;;;;;;8.80;5.70;;;21.60;50.30;;;;;;216001;1294;25285;-46
2022/03/29 04:02:25;;;;;;;8.20;5.50;;;21.60;50.30;;;;;;216095;1294;24323;-49
2022/03/29 04:07:30;;;;;;;8.50;5.90;;;21.50;50.20;;;;;;215479;1296;24470;-49
2022/03/29 04:12:35;;;;;;;7.60;5.50;;;21.50;50.20;;;;;;215526;1296;23091;-47
2022/03/29 04:17:39;;;;;;;7.70;5.40;;;21.50;50.20;;;;;;216198;1294;22566;-49
2022/03/29 04:22:43;;;;;;;6.50;5.20;;;21.50;50.20;;;;;;216063;1293;24259;-47
2022/03/29 04:27:50;;;;;;;9.00;5.60;;;21.50;49.50;;;;;;216130;1294;25440;-45
2022/03/29 04:32:54;;;;;;;8.00;5.10;;;21.50;50.10;;;;;;216205;1293;24044;-51
2022/03/29 04:37:58;;;;;;;8.10;5.30;;;21.50;50.10;;;;;;216217;1294;25532;-47
2022/03/29 04:43:02;;;;;;;10.20;5.60;;;21.50;50.10;;;;;;216267;1294;22574;-48
2022/03/29 04:48:06;;;;;;;6.50;4.70;;;21.50;50.30;;;;;;215783;1293;483143;-49
2022/03/29 04:53:13;;;;;;;9.60;5.60;;;21.50;50.30;;;;;;216003;1293;22578;-46
2022/03/29 04:58:19;;;;;;;7.10;4.90;;;21.50;50.20;;;;;;215403;1296;25357;-50
2022/03/29 05:03:22;;;;;;;8.00;5.60;;;21.40;50.20;;;;;;215784;1294;24467;-46
2022/03/29 05:08:26;;;;;;;9.20;5.70;;;21.40;50.50;;;;;;215570;1296;25287;-48
2022/03/29 05:13:30;;;;;;;6.90;5.00;;;21.40;50.10;;;;;;216046;1294;25436;-47
2022/03/29 05:18:33;;;;;;;7.60;5.60;;;21.30;50.50;;;;;;215553;1293;22557;-47
2022/03/29 05:23:37;;;;;;;8.10;5.10;;;21.30;50.00;;;;;;215862;1294;22566;-47
2022/03/29 05:28:41;;;;;;;6.20;4.90;;;21.40;50.00;;;;;;215781;1293;25358;-48
2022/03/29 05:33:44;;;;;;;8.20;4.80;;;21.40;50.20;;;;;;216101;1293;24110;-48
2022/03/29 05:38:51;;;;;;;7.10;4.80;;;21.40;50.00;;;;;;215970;1294;25518;-55
2022/03/29 05:43:55;;;;;;;7.20;4.40;;;21.40;49.90;;;;;;215968;1293;22566;-56
2022/03/29 05:48:59;;;;;;;7.20;4.60;;;21.40;50.10;;;;;;216203;1293;24307;-53
2022/03/29 05:54:04;;;;;;;6.30;4.40;;;21.40;50.30;;;;;;215847;1293;25406;-55
2022/03/29 05:59:08;;;;;;;9.00;5.10;;;21.40;50.60;;;;;;216081;1293;24341;-56
2022/03/29 06:04:12;;;;;;;11.00;5.40;;;21.40;50.30;;;;;;215893;1293;24894;-59
2022/03/29 06:09:16;;;;;;;7.20;4.60;;;21.30;50.30;;;;;;215789;1294;25496;-52
2022/03/29 06:14:20;;;;;;;9.20;4.80;;;21.30;51.00;;;;;;215372;1293;23104;-53
2022/03/29 06:19:23;;;;;;;9.60;5.30;;;21.40;51.20;;;;;;215995;1294;24301;-58
2022/03/29 06:24:28;;;;;;;7.70;4.40;;;21.40;51.40;;;;;;216113;1293;25404;-52
2022/03/29 06:29:34;;;;;;;9.10;4.90;;;21.40;52.40;;;;;;215548;1294;22586;-56
2022/03/29 06:34:38;;;;;;;8.60;4.80;;;21.50;52.30;;;;;;216246;1293;23984;-51
2022/03/29 06:39:41;;;;;;;12.10;4.60;;;21.60;52.80;;;;;;216098;1294;22746;-55
2022/03/29 06:44:45;;;;;;;13.50;4.40;;;21.60;52.40;;;;;;216019;1294;25248;-58
2022/03/29 06:49:50;;;;;;;14.90;5.10;;;21.60;52.50;;;;;;216253;1293;25325;-52
2022/03/29 06:54:57;;;;;;;12.60;4.40;;;21.50;52.30;;;;;;215495;1293;24347;-52
2022/03/29 07:00:03;;;;;;;10.90;4.20;;;21.50;52.40;;;;;;216180;1294;26525;-53
2022/03/29 07:05:08;;;;;;;20.10;5.10;;;21.50;52.30;;;;;;217303;1293;22569;-53
2022/03/29 07:15:57;;;;;;;13.10;4.70;;;21.40;52.00;;;;;;214868;1300;23394;-52
2022/03/29 07:21:04;;;;;;;12.20;4.30;;;21.50;52.30;;;;;;216701;1293;24353;-53
2022/03/29 07:26:08;;;;;;;8.60;4.20;;;21.40;52.10;;;;;;215686;1293;24433;-56
2022/03/29 07:31:12;;;;;;;8.90;4.80;;;21.40;51.90;;;;;;215639;1293;22637;-53
2022/03/29 07:36:16;;;;;;;9.70;3.80;;;21.40;52.00;;;;;;215801;1293;26617;-53
2022/03/29 07:41:20;;;;;;;6.60;4.30;;;21.50;51.90;;;;;;215953;1293;25403;-53
2022/03/29 07:46:23;;;;;;;7.50;4.30;;;21.40;51.50;;;;;;216268;1293;24269;-58
2022/03/29 07:51:27;;;;;;;8.70;4.30;;;21.50;51.10;;;;;;215059;1293;22793;-55
2022/03/29 07:56:31;;;;;;;10.40;4.40;;;21.40;51.40;;;;;;215700;1293;22589;-58
2022/03/29 08:01:36;;;;;;;11.30;4.70;;;21.50;51.50;;;;;;215757;1293;23007;-54
2022/03/29 08:06:40;;;;;;;9.10;4.00;;;21.40;51.50;;;;;;215365;1293;25287;-54
2022/03/29 08:11:43;;;;;;;7.40;3.80;;;21.50;51.20;;;;;;215648;1293;23686;-57
2022/03/29 08:16:47;;;;;;;10.00;4.40;;;21.50;51.30;;;;;;215515;1293;25446;-57
2022/03/29 08:21:52;;;;;;;8.20;4.10;;;21.50;51.20;;;;;;215829;1294;22599;-57
2022/03/29 08:26:56;;;;;;;6.30;3.80;;;21.50;50.70;;;;;;215779;1294;25368;-53
2022/03/29 08:32:04;;;;;;;7.80;3.90;;;21.50;50.50;;;;;;215593;1293;24474;-56
2022/03/29 08:37:11;;;;;;;10.10;4.00;;;21.50;50.50;;;;;;215673;1294;22586;-57
2022/03/29 08:42:20;;;;;;;7.40;3.50;;;21.50;50.90;;;;;;215347;1293;23064;-59
2022/03/29 08:47:28;;;;;;;7.90;3.70;;;21.50;50.90;;;;;;215692;1294;23492;-56
2022/03/29 08:52:37;;;;;;;9.20;3.60;;;21.50;51.50;;;;;;215745;1293;24394;-55
2022/03/29 08:57:41;;;;;;;10.90;4.50;;;21.50;50.80;;;;;;215564;1293;25460;-48
2022/03/29 09:02:44;;;;;;;11.30;4.10;;;21.60;50.00;;;;;;215163;1293;25315;-53
2022/03/29 09:08:03;;;;;;;14.30;4.80;;;21.70;50.70;;;;;;215043;1296;23193;-54
2022/03/29 09:13:17;;;;;;;9.30;4.50;;;21.70;50.30;;;;;;215905;1294;22559;-55
2022/03/29 09:18:21;;;;;;;10.00;3.90;;;21.70;50.20;;;;;;215716;1294;22592;-51
2022/03/29 09:23:26;;;;;;;8.40;4.40;;;21.70;51.00;;;;;;215488;1293;24354;-49
2022/03/29 09:28:35;;;;;;;7.50;4.00;;;21.70;50.90;;;;;;215462;1293;22628;-48
2022/03/29 09:33:43;;;;;;;11.00;4.50;;;21.80;50.60;;;;;;214968;1293;26321;-44
2022/03/29 09:38:51;;;;;;;9.80;4.20;;;21.80;50.90;;;;;;215743;1293;22675;-48
2022/03/29 09:44:05;;;;;;;8.80;3.90;;;21.70;50.60;;;;;;215989;1293;22713;-47
2022/03/29 09:49:09;;;;;;;9.30;4.00;;;21.80;50.80;;;;;;215669;1294;25280;-46
2022/03/29 09:54:13;;;;;;;8.10;4.20;;;21.80;50.70;;;;;;215534;1293;22589;-47
2022/03/29 09:59:17;;;;;;;9.30;3.80;;;21.70;50.40;;;;;;215449;1293;24305;-47
2022/03/29 10:04:30;;;;;;;8.20;4.30;;;21.80;50.60;;;;;;215911;1293;22810;-53
2022/03/29 10:09:37;;;;;;;10.80;4.30;;;21.80;50.60;;;;;;215842;1294;24483;-48
2022/03/29 10:14:43;;;;;;;10.00;4.80;;;21.80;50.60;;;;;;216084;1293;22566;-50
2022/03/29 10:19:47;;;;;;;6.90;3.70;;;21.80;50.30;;;;;;216149;1293;24300;-54
2022/03/29 10:24:52;;;;;;;10.20;4.70;;;21.80;50.50;;;;;;215718;1293;24271;-50
2022/03/29 10:29:57;;;;;;;7.00;4.20;;;21.80;50.40;;;;;;215828;1293;22716;-48
2022/03/29 10:35:06;;;;;;;7.00;3.50;;;21.90;50.30;;;;;;215683;1293;22623;-48
2022/03/29 10:40:36;;;;;;;9.00;4.10;;;21.90;50.60;;;;;;215722;1293;22595;-49
2022/03/29 10:45:44;;;;;;;7.60;3.90;;;22.00;50.10;;;;;;215706;1294;22735;-50
2022/03/29 10:50:57;;;;;;;6.70;3.60;;;21.90;49.80;;;;;;215520;1293;25290;-55
2022/03/29 10:56:13;;;;;;;6.30;3.80;;;21.90;49.90;;;;;;215737;1293;25408;-56
2022/03/29 11:01:16;;;;;;;10.30;5.20;;;22.00;49.60;;;;;;215662;1293;27654;-56
2022/03/29 11:06:20;;;;;;;8.50;4.10;;;22.00;49.50;;;;;;215893;1294;22579;-56
2022/03/29 11:11:46;;;;;;;9.20;3.80;;;21.90;49.60;;;;;;216146;1293;24341;-56
2022/03/29 11:17:07;;;;;;;7.10;3.90;;;21.90;50.00;;;;;;215987;1294;22588;-60
2022/03/29 11:22:24;;;;;;;9.00;4.20;;;21.90;49.70;;;;;;215991;1294;22967;-57
2022/03/29 11:27:34;;;;;;;8.10;3.80;;;21.90;49.80;;;;;;216137;1294;25401;-56
2022/03/29 11:32:43;;;;;;;9.20;4.20;;;21.90;49.20;;;;;;215925;1293;22575;-61
2022/03/29 11:37:49;;;;;;;6.30;3.60;;;21.90;49.40;;;;;;216045;1293;23094;-57
2022/03/29 11:42:55;;;;;;;7.70;3.70;;;22.00;49.20;;;;;;215841;1293;25374;-57
2022/03/29 11:48:03;;;;;;;6.80;3.30;;;22.00;49.70;;;;;;215910;1293;22605;-62
2022/03/29 11:53:32;;;;;;;7.20;3.70;;;22.00;49.60;;;;;;215983;1293;23157;-57
2022/03/29 11:58:40;;;;;;;7.90;3.50;;;22.00;49.30;;;;;;215986;1293;25514;-58
2022/03/29 12:03:47;;;;;;;6.30;3.00;;;22.10;49.10;;;;;;215903;1293;25303;-56
2022/03/29 12:08:56;;;;;;;6.40;3.80;;;22.10;49.10;;;;;;216000;1294;22612;-58
2022/03/29 12:14:11;;;;;;;9.00;3.90;;;22.10;49.10;;;;;;216125;1294;22562;-57
2022/03/29 12:19:17;;;;;;;9.10;4.00;;;22.10;49.00;;;;;;216308;1294;22720;-60
2022/03/29 12:24:26;;;;;;;8.60;3.60;;;22.10;49.10;;;;;;216206;1294;22924;-63
2022/03/29 12:29:44;;;;;;;;;;;22.20;49.00;;;;;;215811;1293;22547;-57
2022/03/29 12:35:03;;;;;;;7.10;3.60;;;22.20;48.90;;;;;;215816;1293;24240;-57
2022/03/29 12:40:12;;;;;;;7.30;4.00;;;22.20;48.80;;;;;;216097;1293;24322;-57
2022/03/29 12:45:16;;;;;;;5.60;3.70;;;22.20;48.50;;;;;;215230;1296;24309;-57
2022/03/29 12:50:21;;;;;;;4.70;3.20;;;22.20;48.50;;;;;;215856;1293;24353;-56
2022/03/29 12:55:25;;;;;;;7.40;3.60;;;22.20;48.70;;;;;;215842;1293;25394;-57
2022/03/29 13:00:41;;;;;;;5.70;4.00;;;22.30;48.60;;;;;;215809;1293;24296;-57
2022/03/29 13:05:48;;;;;;;6.60;3.80;;;22.30;48.30;;;;;;215982;1293;24428;-56
2022/03/29 13:10:52;;;;;;;8.50;4.00;;;22.40;48.10;;;;;;215835;1293;24339;-57
2022/03/29 13:16:10;;;;;;;6.00;3.50;;;22.30;48.40;;;;;;215760;1293;25305;-55
2022/03/29 13:21:24;;;;;;;31.00;7.40;;;22.30;48.30;;;;;;215629;1293;24538;-59
2022/03/29 13:26:43;;;;;;;24.90;8.00;;;22.40;48.60;;;;;;215765;1294;24364;-56
2022/03/29 13:31:52;;;;;;;15.90;5.60;;;22.40;49.40;;;;;;215775;1293;22594;-60
2022/03/29 13:36:57;;;;;;;15.40;5.60;;;22.30;48.80;;;;;;215966;1294;24376;-57
2022/03/29 13:42:00;;;;;;;11.90;5.60;;;22.30;48.10;;;;;;216022;1294;22710;-57
2022/03/29 13:47:06;;;;;;;11.20;5.30;;;22.20;47.70;;;;;;215909;1293;24272;-57
2022/03/29 13:52:10;;;;;;;16.10;6.90;;;22.20;48.20;;;;;;215942;1293;23932;-57
2022/03/29 13:57:13;;;;;;;15.90;6.40;;;22.10;48.20;;;;;;215569;1294;22585;-57
2022/03/29 14:02:18;;;;;;;12.90;6.30;;;22.10;47.50;;;;;;217009;1292;22551;-55
2022/03/29 14:07:29;;;;;;;10.70;6.00;;;22.10;47.60;;;;;;215799;1293;24297;-57
2022/03/29 14:12:39;;;;;;;10.20;5.20;;;22.10;47.60;;;;;;216017;1293;25424;-56
2022/03/29 14:17:50;;;;;;;9.70;4.70;;;22.10;47.80;;;;;;216129;1294;24540;-59
2022/03/29 14:22:55;;;;;;;11.60;4.70;;;22.20;47.50;;;;;;216124;1294;24357;-56
2022/03/29 14:28:00;;;;;;;11.60;4.90;;;22.20;47.50;;;;;;216187;1294;24353;-57
2022/03/29 14:33:05;;;;;;;8.30;5.00;;;22.20;47.50;;;;;;215996;1293;22548;-58
2022/03/29 14:38:10;;;;;;;10.50;5.80;;;22.20;47.60;;;;;;216148;1294;22642;-58
2022/03/29 14:43:15;;;;;;;9.60;5.30;;;22.20;47.70;;;;;;216190;1294;26705;-57
2022/03/29 14:48:19;;;;;;;13.80;5.10;;;22.10;48.40;;;;;;216153;1294;23567;-56
2022/03/29 14:53:44;;;;;;;8.20;4.70;;;22.10;47.60;;;;;;215955;1294;24548;-59
2022/03/29 14:59:05;;;;;;;9.00;4.90;;;22.00;47.60;;;;;;215862;1293;25420;-57
2022/03/29 15:04:20;;;;;;;9.50;4.50;;;22.10;48.00;;;;;;215319;1295;24271;-58
2022/03/29 15:09:30;;;;;;;12.70;5.90;;;22.00;47.50;;;;;;215965;1293;22598;-58
2022/03/29 15:14:54;;;;;;;13.10;5.50;;;22.00;47.60;;;;;;215634;1293;24451;-58
2022/03/29 15:20:22;;;;;;;10.40;5.10;;;22.00;48.20;;;;;;215730;1293;22597;-57
2022/03/29 15:25:32;;;;;;;17.30;5.40;;;22.10;49.70;;;;;;215538;1293;22649;-56
2022/03/29 15:30:44;;;;;;;7.90;4.80;;;22.10;50.00;;;;;;215846;1293;22797;-57
2022/03/29 15:35:59;;;;;;;8.10;4.50;;;22.20;49.90;;;;;;215579;1293;24517;-56
2022/03/29 15:41:15;;;;;;;12.90;4.90;;;22.30;50.10;;;;;;215759;1293;22591;-56
2022/03/29 15:46:27;;;;;;;22.50;6.30;;;22.20;51.30;;;;;;215554;1293;22579;-56
2022/03/29 15:51:43;;;;;;;14.20;6.40;;;22.20;51.10;;;;;;215452;1293;23206;-54
2022/03/29 15:56:55;;;;;;;24.20;7.30;;;22.20;50.90;;;;;;215359;1293;25217;-54
2022/03/29 16:02:05;;;;;;;179.30;49.40;;;22.10;50.80;;;;;;215300;1293;22678;-53
2022/03/29 16:07:12;;;;;;;119.80;37.40;;;22.10;50.50;;;;;;215158;1293;25291;-51
2022/03/29 16:12:22;;;;;;;83.50;31.30;;;22.10;50.20;;;;;;215645;1293;23958;-59
2022/03/29 16:17:38;;;;;;;80.50;27.80;;;22.10;50.10;;;;;;215064;1293;25361;-51
2022/03/29 16:22:50;;;;;;;65.10;24.50;;;22.00;50.40;;;;;;216703;1293;23873;-53
2022/03/29 16:28:12;;;;;;;64.20;24.60;;;22.00;50.40;;;;;;218065;1294;24347;-58
2022/03/29 16:33:29;;;;;;;65.00;23.30;;;22.00;50.00;;;;;;223023;1294;22466;-57
2022/03/29 16:38:39;;;;;;;63.40;21.70;;;22.10;49.70;;;;;;223024;1293;22550;-60
2022/03/29 16:43:49;;;;;;;55.60;22.10;;;22.20;49.50;;;;;;215603;1293;24307;-61
2022/03/29 16:48:54;;;;;;;58.90;21.70;;;22.10;49.50;;;;;;215167;1294;391672;-60
2022/03/29 16:54:04;;;;;;;58.80;21.00;;;22.10;50.50;;;;;;214707;1293;25424;-59
2022/03/29 16:59:14;;;;;;;58.80;21.70;;;22.10;50.90;;;;;;215659;1294;22565;-59
2022/03/29 17:04:17;;;;;;;58.80;20.70;;;22.00;50.60;;;;;;215103;1293;23983;-60
2022/03/29 17:09:27;;;;;;;56.90;21.40;;;22.00;50.90;;;;;;215521;1294;23927;-59
2022/03/29 17:14:33;;;;;;;57.20;22.10;;;22.00;50.50;;;;;;215161;1293;23935;-59
2022/03/29 17:20:18;;;;;;;49.90;19.70;;;21.90;50.80;;;;;;214988;1293;24361;-59
2022/03/29 17:25:41;;;;;;;48.30;18.80;;;22.00;50.60;;;;;;214959;1296;24358;-58
2022/03/29 17:30:50;;;;;;;54.90;18.80;;;22.00;51.50;;;;;;214548;1295;22650;-60
2022/03/29 17:35:57;;;;;;;48.20;18.10;;;22.10;51.10;;;;;;215007;1293;22591;-60
2022/03/29 17:41:15;;;;;;;44.70;17.50;;;22.10;51.10;;;;;;214784;1293;22602;-57
2022/03/29 17:46:22;;;;;;;47.10;18.00;;;22.10;50.90;;;;;;214700;1292;23930;-59
2022/03/29 17:51:59;;;;;;;44.10;17.00;;;22.00;50.90;;;;;;214787;1293;22798;-59
2022/03/29 17:57:13;;;;;;;46.40;17.80;;;22.00;51.00;;;;;;214943;1296;25475;-59
2022/03/29 18:02:38;;;;;;;41.20;15.70;;;22.00;51.00;;;;;;215739;1293;22609;-60
2022/03/29 18:07:45;;;;;;;41.40;15.60;;;22.00;51.10;;;;;;215051;1293;22556;-58
2022/03/29 18:12:54;;;;;;;42.30;15.90;;;22.00;51.40;;;;;;215093;1293;22606;-59
2022/03/29 18:17:58;;;;;;;36.50;15.50;;;22.00;51.60;;;;;;214881;1296;22619;-60
2022/03/29 18:23:21;;;;;;;34.60;14.20;;;22.00;51.20;;;;;;215028;1293;26551;-59
2022/03/29 18:28:43;;;;;;;34.70;14.80;;;22.10;51.80;;;;;;215337;1293;25400;-59
2022/03/29 18:34:01;;;;;;;34.60;15.20;;;22.10;51.80;;;;;;215178;1294;25612;-60
2022/03/29 18:39:08;;;;;;;36.50;15.50;;;22.10;51.50;;;;;;215491;1293;22576;-62
2022/03/29 18:44:14;;;;;;;37.50;14.90;;;22.00;51.30;;;;;;215422;1293;24659;-60
2022/03/29 18:49:20;;;;;;;33.30;14.30;;;22.00;51.60;;;;;;215068;1293;24395;-60
2022/03/29 18:54:24;;;;;;;41.20;16.60;;;21.90;51.60;;;;;;215808;1293;23135;-61
2022/03/29 18:59:28;;;;;;;35.50;15.60;;;21.90;51.70;;;;;;215462;1294;22610;-60
2022/03/29 19:04:33;;;;;;;35.90;14.80;;;21.90;51.70;;;;;;215025;1293;22584;-59
2022/03/29 19:09:43;;;;;;;36.50;14.80;;;21.80;51.80;;;;;;215670;1293;22617;-61
2022/03/29 19:14:46;;;;;;;30.60;13.20;;;21.80;51.80;;;;;;215434;1293;22566;-59
2022/03/29 19:19:50;;;;;;;29.80;13.20;;;21.90;52.50;;;;;;215149;1296;22712;-59
2022/03/29 19:24:53;;;;;;;29.80;13.00;;;21.90;52.50;;;;;;214700;1296;25239;-58
2022/03/29 19:29:57;;;;;;;34.30;14.70;;;22.00;51.80;;;;;;215787;1293;25519;-56
2022/03/29 19:35:13;;;;;;;29.00;13.30;;;22.00;52.60;;;;;;215741;1294;23983;-58
2022/03/29 19:40:17;;;;;;;35.20;12.90;;;21.90;51.40;;;;;;214973;1293;22602;-57
2022/03/29 19:45:23;;;;;;;26.50;13.20;;;21.80;52.10;;;;;;215481;1294;24244;-56
2022/03/29 19:50:27;;;;;;;33.20;13.80;;;21.80;52.20;;;;;;215782;1294;25305;-55
2022/03/29 19:55:51;;;;;;;39.10;14.10;;;21.80;52.30;;;;;;215834;1294;22723;-58
2022/03/29 20:00:54;;;;;;;43.70;14.10;;;21.70;52.90;;;;;;215576;1294;24268;-57
2022/03/29 20:05:58;;;;;;;40.00;14.30;;;21.70;53.10;;;;;;215901;1293;25408;-59
2022/03/29 20:11:02;;;;;;;37.70;13.10;;;21.70;52.80;;;;;;215235;1296;25309;-58
2022/03/29 20:16:06;;;;;;;36.40;13.00;;;21.70;52.70;;;;;;215642;1293;25514;-58
2022/03/29 20:21:13;;;;;;;34.90;13.90;;;21.70;52.50;;;;;;215546;1294;22578;-56
2022/03/29 20:26:17;;;;;;;26.40;12.20;;;21.70;52.20;;;;;;215660;1294;25366;-58
2022/03/29 20:31:21;;;;;;;33.70;12.40;;;21.80;53.00;;;;;;215397;1293;25767;-56
2022/03/29 20:36:25;;;;;;;24.30;11.80;;;21.70;52.10;;;;;;215453;1293;24467;-59
2022/03/29 20:41:29;;;;;;;32.00;11.70;;;21.80;52.30;;;;;;215458;1294;23076;-57
2022/03/29 20:46:32;;;;;;;29.40;12.40;;;21.80;51.80;;;;;;217269;1293;22577;-58
2022/03/29 20:51:38;;;;;;;25.10;11.40;;;21.80;51.70;;;;;;214845;1293;23632;-57
2022/03/29 20:56:46;;;;;;;23.20;11.70;;;21.80;51.60;;;;;;215540;1294;22596;-57
2022/03/29 21:01:50;;;;;;;23.00;11.60;;;21.70;51.40;;;;;;215684;1294;23552;-59
2022/03/29 21:06:54;;;;;;;23.50;11.70;;;21.70;51.80;;;;;;215425;1296;24336;-57
2022/03/29 21:11:59;;;;;;;25.20;11.90;;;21.70;51.70;;;;;;214858;1293;24313;-55
2022/03/29 21:17:02;;;;;;;22.80;11.90;;;21.70;51.80;;;;;;215208;1297;25475;-57
2022/03/29 21:22:06;;;;;;;31.40;12.50;;;21.70;51.80;;;;;;215484;1293;24559;-60
2022/03/29 21:27:12;;;;;;;25.70;12.90;;;21.70;52.20;;;;;;215622;1294;22757;-55
2022/03/29 21:32:16;;;;;;;23.60;11.60;;;21.60;52.50;;;;;;215673;1294;24329;-59
2022/03/29 21:37:19;;;;;;;23.30;11.90;;;21.60;52.50;;;;;;215697;1294;23651;-56
2022/03/29 21:42:26;;;;;;;24.40;11.60;;;21.60;52.60;;;;;;215626;1294;22570;-57
2022/03/29 21:47:29;;;;;;;23.10;11.80;;;21.60;53.00;;;;;;215531;1294;25548;-58
2022/03/29 21:52:36;;;;;;;24.20;12.10;;;21.70;53.60;;;;;;215554;1299;23282;-58
2022/03/29 21:58:04;;;;;;;25.00;12.10;;;21.80;53.20;;;;;;215932;1294;26644;-58
2022/03/29 22:03:30;;;;;;;23.20;12.00;;;21.90;54.00;;;;;;215686;1296;24404;-58
2022/03/29 22:08:56;;;;;;;25.70;12.10;;;21.90;53.80;;;;;;215763;1294;22576;-56
2022/03/29 22:13:59;;;;;;;20.80;11.30;;;22.00;53.50;;;;;;215656;1294;23026;-54
2022/03/29 22:19:08;;;;;;;19.70;10.30;;;22.10;53.60;;;;;;216660;1294;22592;-50
2022/03/29 22:24:21;;;;;;;22.70;10.40;;;22.30;53.80;;;;;;215902;1296;22564;-57
2022/03/29 22:29:29;;;;;;;15.50;10.40;;;22.60;52.50;;;;;;216175;1294;24485;-52
2022/03/29 22:34:34;;;;;;;21.50;12.20;;;22.50;52.60;;;;;;215935;1293;24399;-54
2022/03/29 22:39:39;;;;;;;18.90;10.50;;;22.30;52.80;;;;;;215594;1297;22602;-59
2022/03/29 22:44:43;;;;;;;20.30;10.80;;;22.20;53.10;;;;;;215901;1296;22723;-56
2022/03/29 22:49:49;;;;;;;24.30;11.10;;;22.10;53.10;;;;;;215832;1293;25409;-57
2022/03/29 22:54:52;;;;;;;19.90;10.70;;;22.00;53.30;;;;;;215247;1299;22700;-58
2022/03/29 23:00:00;;;;;;;22.40;11.40;;;21.90;53.20;;;;;;216104;1294;25302;-59
2022/03/29 23:05:04;;;;;;;25.80;12.20;;;21.80;53.30;;;;;;215555;1299;22560;-54
2022/03/29 23:10:19;;;;;;;24.70;12.30;;;21.70;53.50;;;;;;215742;1293;22585;-56
2022/03/29 23:15:28;;;;;;;23.60;11.30;;;21.70;53.50;;;;;;216018;1294;25353;-55
2022/03/29 23:20:33;;;;;;;23.60;11.30;;;21.60;53.60;;;;;;215998;1293;22630;-59
2022/03/29 23:25:36;;;;;;;23.70;11.50;;;21.60;53.50;;;;;;215864;1294;22605;-56
2022/03/29 23:30:40;;;;;;;27.10;12.10;;;21.60;53.40;;;;;;215844;1296;22590;-55
2022/03/29 23:35:44;;;;;;;23.50;11.10;;;21.70;53.30;;;;;;215969;1294;22582;-55
2022/03/29 23:40:47;;;;;;;21.10;10.60;;;21.70;53.10;;;;;;215923;1294;22614;-54
2022/03/29 23:45:51;;;;;;;23.60;10.60;;;21.70;52.80;;;;;;215944;1294;24445;-56
2022/03/29 23:50:55;;;;;;;19.80;9.50;;;21.70;52.70;;;;;;215874;1296;22732;-56
2022/03/29 23:55:59;;;;;;;18.50;9.90;;;21.80;52.60;;;;;;215400;1296;25393;-58
